Time;durP1;ratioP1;P1;durP2;ratioP2;P2;SDS_P1;SDS_P2;PMS_P1;PMS_P2;Temp;Humidity;BMP_temperature;BMP_pressure;BME280_temperature;BME280_humidity;BME280_pressure;Samples;Min_cycle;Max_cycle;Signal;HPM_P1;HPM_P2
2024/03/08 00:02:19;;;;;;;24.90;12.70;;;3.60;99.90;;;;;;5013067;28;20447;-80
2024/03/08 00:04:47;;;;;;;21.53;13.10;;;3.60;99.90;;;;;;5010557;28;20476;-82
2024/03/08 00:07:14;;;;;;;22.10;13.00;;;3.60;99.90;;;;;;5005934;28;20483;-82
2024/03/08 00:09:41;;;;;;;21.53;11.63;;;3.60;99.90;;;;;;5013830;28;20578;-81
2024/03/08 00:12:08;;;;;;;23.40;14.00;;;3.60;99.90;;;;;;5005937;28;20561;-83
2024/03/08 00:14:37;;;;;;;27.93;13.80;;;3.60;99.90;;;;;;5007678;28;20484;-83
2024/03/08 00:17:04;;;;;;;22.83;13.93;;;3.50;99.90;;;;;;5012176;28;20477;-83
2024/03/08 00:19:30;;;;;;;23.60;12.03;;;3.50;99.90;;;;;;5011020;28;20434;-83
2024/03/08 00:21:58;;;;;;;23.23;13.20;;;3.50;99.90;;;;;;5018744;28;20448;-82
2024/03/08 00:24:25;;;;;;;23.23;12.40;;;3.50;99.90;;;;;;5018789;28;20482;-82
2024/03/08 00:26:53;;;;;;;22.80;14.50;;;3.40;99.90;;;;;;5012608;28;20530;-83
2024/03/08 00:29:20;;;;;;;23.20;12.07;;;3.40;99.90;;;;;;5010268;28;20952;-84
2024/03/08 00:31:47;;;;;;;23.63;13.83;;;3.40;99.90;;;;;;5008057;28;20552;-82
2024/03/08 00:34:13;;;;;;;23.00;14.10;;;3.40;99.90;;;;;;5010412;28;20567;-82
2024/03/08 00:36:40;;;;;;;19.63;12.13;;;3.40;99.90;;;;;;5013857;28;20438;-82
2024/03/08 00:39:08;;;;;;;18.73;11.27;;;3.30;99.90;;;;;;5014377;28;20474;-82
2024/03/08 00:41:35;;;;;;;23.97;12.70;;;3.30;99.90;;;;;;5009625;28;20455;-82
2024/03/08 00:44:04;;;;;;;24.80;14.23;;;3.50;99.90;;;;;;5014644;28;20443;-82
2024/03/08 00:46:31;;;;;;;22.00;14.03;;;3.30;99.90;;;;;;5008476;28;20455;-82
2024/03/08 00:48:58;;;;;;;21.13;12.10;;;3.20;99.90;;;;;;5011287;28;20943;-83
2024/03/08 00:51:25;;;;;;;24.90;13.80;;;3.20;99.90;;;;;;5007221;28;20461;-82
2024/03/08 00:53:55;;;;;;;21.17;12.93;;;3.20;99.90;;;;;;5012931;28;20487;-82
2024/03/08 00:56:24;;;;;;;26.53;13.40;;;3.20;99.90;;;;;;5010117;28;20877;-82
2024/03/08 00:58:51;;;;;;;24.90;13.43;;;3.20;99.90;;;;;;5012579;28;20974;-82
2024/03/08 01:01:19;;;;;;;25.00;14.40;;;3.20;99.90;;;;;;5009071;28;20456;-83
2024/03/08 01:03:46;;;;;;;26.60;14.50;;;3.20;99.90;;;;;;5004759;28;20481;-83
2024/03/08 01:06:13;;;;;;;30.40;16.30;;;3.10;99.90;;;;;;5004718;28;20467;-83
2024/03/08 01:08:42;;;;;;;27.60;14.30;;;3.10;99.90;;;;;;5010925;28;20508;-82
2024/03/08 01:11:08;;;;;;;25.20;14.20;;;3.10;99.90;;;;;;5008540;28;20483;-81
2024/03/08 01:13:39;;;;;;;24.87;15.10;;;3.10;99.90;;;;;;5014402;28;20489;-83
2024/03/08 01:16:06;;;;;;;24.80;14.10;;;3.10;99.90;;;;;;5004585;28;21085;-84
2024/03/08 01:18:33;;;;;;;24.00;13.67;;;3.10;99.90;;;;;;5004980;28;20466;-82
2024/03/08 01:21:00;;;;;;;24.93;13.47;;;3.10;99.90;;;;;;5007248;28;20969;-82
2024/03/08 01:23:27;;;;;;;26.13;13.93;;;3.10;99.90;;;;;;5013947;28;20524;-82
2024/03/08 01:25:56;;;;;;;25.90;14.00;;;3.10;99.90;;;;;;5008547;28;20460;-82
2024/03/08 01:28:23;;;;;;;25.23;13.60;;;3.00;99.90;;;;;;5010025;28;20455;-82
2024/03/08 01:30:55;;;;;;;22.00;13.30;;;3.00;99.90;;;;;;5014887;28;20496;-81
2024/03/08 01:33:22;;;;;;;23.40;12.93;;;3.00;99.90;;;;;;5007597;28;20496;-81
2024/03/08 01:35:49;;;;;;;23.83;13.63;;;3.00;99.90;;;;;;5014467;28;20904;-82
2024/03/08 01:38:16;;;;;;;25.17;13.43;;;3.00;99.90;;;;;;5010235;28;20469;-81
2024/03/08 01:40:43;;;;;;;21.50;13.23;;;3.00;99.90;;;;;;5013415;28;20449;-81
2024/03/08 01:43:18;;;;;;;25.60;15.00;;;3.00;99.90;;;;;;5007399;28;20472;-82
2024/03/08 01:45:45;;;;;;;27.40;13.60;;;3.00;99.90;;;;;;4999590;28;20997;-82
2024/03/08 01:48:14;;;;;;;23.23;13.67;;;3.00;99.90;;;;;;5001994;28;20458;-81
2024/03/08 01:50:42;;;;;;;23.90;12.80;;;3.00;99.90;;;;;;5004792;28;20458;-82
2024/03/08 01:53:11;;;;;;;23.43;12.30;;;3.00;99.90;;;;;;5003498;28;20467;-81
2024/03/08 01:55:40;;;;;;;27.00;15.70;;;3.00;99.90;;;;;;4996506;28;21039;-81
2024/03/08 01:58:08;;;;;;;21.53;13.03;;;3.00;99.90;;;;;;5010498;28;20461;-81
2024/03/08 02:00:38;;;;;;;22.87;12.23;;;3.00;99.90;;;;;;5011306;28;20443;-82
2024/03/08 02:03:05;;;;;;;27.00;14.73;;;3.00;99.90;;;;;;5000144;28;20466;-81
2024/03/08 02:05:33;;;;;;;29.00;14.30;;;3.00;99.90;;;;;;5006729;28;20443;-83
2024/03/08 02:08:00;;;;;;;29.63;14.40;;;2.90;99.90;;;;;;5003975;28;20512;-81
2024/03/08 02:10:27;;;;;;;27.00;13.50;;;2.90;99.90;;;;;;5011054;28;20933;-81
2024/03/08 02:12:54;;;;;;;25.70;14.07;;;3.00;99.90;;;;;;5006589;28;20497;-82
2024/03/08 02:15:21;;;;;;;26.10;14.90;;;2.90;99.90;;;;;;5010525;28;20533;-81
2024/03/08 02:17:48;;;;;;;24.33;11.80;;;2.90;99.90;;;;;;5000234;28;20945;-83
2024/03/08 02:20:16;;;;;;;22.23;13.00;;;2.90;99.90;;;;;;5010379;28;20843;-83
2024/03/08 02:22:44;;;;;;;24.40;13.80;;;2.90;99.90;;;;;;5010591;28;20473;-82
2024/03/08 02:25:12;;;;;;;24.03;13.50;;;2.90;99.90;;;;;;5005205;28;20515;-83
2024/03/08 02:27:39;;;;;;;24.13;13.00;;;2.90;99.90;;;;;;4998685;28;20833;-81
2024/03/08 02:30:07;;;;;;;26.70;14.03;;;2.90;99.90;;;;;;5009281;28;20428;-83
2024/03/08 02:32:33;;;;;;;24.13;13.57;;;2.80;99.90;;;;;;5009453;28;20499;-82
2024/03/08 02:35:00;;;;;;;26.73;14.47;;;2.80;99.90;;;;;;5009675;28;20488;-83
2024/03/08 02:37:28;;;;;;;24.30;13.30;;;2.80;99.90;;;;;;5017608;28;20461;-82
2024/03/08 02:39:56;;;;;;;33.53;14.23;;;2.80;99.90;;;;;;5009042;28;20489;-81
2024/03/08 02:42:23;;;;;;;26.10;14.77;;;2.70;99.90;;;;;;5003987;28;20457;-82
2024/03/08 02:44:50;;;;;;;23.33;11.90;;;2.70;99.90;;;;;;5005961;28;20980;-82
2024/03/08 02:47:16;;;;;;;25.00;14.80;;;2.70;99.90;;;;;;5003599;28;20461;-83
2024/03/08 02:49:43;;;;;;;22.97;13.80;;;2.70;99.90;;;;;;5009513;28;20469;-81
2024/03/08 02:52:11;;;;;;;26.60;15.40;;;2.70;99.90;;;;;;5017546;28;20461;-82
2024/03/08 02:54:38;;;;;;;31.53;16.23;;;2.70;99.90;;;;;;5013738;28;20496;-82
2024/03/08 02:57:07;;;;;;;26.83;14.47;;;2.60;99.90;;;;;;5009133;28;20461;-82
2024/03/08 02:59:34;;;;;;;26.50;14.73;;;2.60;99.90;;;;;;5017198;28;20436;-83
2024/03/08 03:02:01;;;;;;;23.33;12.93;;;2.60;99.90;;;;;;5009444;28;20520;-83
2024/03/08 03:04:28;;;;;;;24.47;14.80;;;2.50;99.90;;;;;;5002582;28;20481;-83
2024/03/08 03:06:55;;;;;;;26.67;14.10;;;2.50;99.90;;;;;;5005363;28;20466;-82
2024/03/08 03:09:27;;;;;;;24.20;14.00;;;2.50;99.90;;;;;;5011683;28;20465;-81
2024/03/08 03:11:54;;;;;;;25.20;13.80;;;2.50;99.90;;;;;;5016856;28;20519;-82
2024/03/08 03:14:22;;;;;;;27.07;15.40;;;2.50;99.90;;;;;;5008855;28;20499;-81
2024/03/08 03:16:49;;;;;;;23.50;13.43;;;2.50;99.90;;;;;;5000522;28;20461;-81
2024/03/08 03:19:16;;;;;;;27.57;14.47;;;2.50;99.90;;;;;;5003089;28;20524;-82
2024/03/08 03:21:44;;;;;;;28.73;14.27;;;2.50;99.90;;;;;;4999308;28;20983;-81
2024/03/08 03:24:11;;;;;;;28.53;14.50;;;2.50;99.90;;;;;;5010409;28;20855;-82
2024/03/08 03:26:38;;;;;;;32.43;15.60;;;2.50;99.90;;;;;;5004310;28;20476;-81
2024/03/08 03:29:08;;;;;;;23.73;13.33;;;2.50;99.90;;;;;;5012550;28;20462;-82
2024/03/08 03:31:37;;;;;;;33.03;16.30;;;2.50;99.90;;;;;;5012179;28;20498;-82
2024/03/08 03:34:04;;;;;;;25.70;13.50;;;2.40;99.90;;;;;;5015437;28;20900;-82
2024/03/08 03:36:31;;;;;;;27.73;15.97;;;2.40;99.90;;;;;;5007915;28;20461;-80
2024/03/08 03:39:10;;;;;;;29.60;14.60;;;2.40;99.90;;;;;;5011695;28;20487;-82
2024/03/08 03:41:38;;;;;;;30.50;16.17;;;2.30;99.90;;;;;;5007294;28;20432;-82
2024/03/08 03:44:05;;;;;;;28.40;15.70;;;2.30;99.90;;;;;;5007437;28;20478;-83
2024/03/08 03:46:32;;;;;;;29.00;16.17;;;2.30;99.90;;;;;;5015479;28;20843;-82
2024/03/08 03:49:04;;;;;;;24.23;13.37;;;2.20;99.90;;;;;;5015353;28;20462;-81
2024/03/08 03:51:31;;;;;;;29.10;14.70;;;2.20;99.90;;;;;;5014959;28;20480;-81
2024/03/08 03:53:58;;;;;;;26.40;14.90;;;2.20;99.90;;;;;;5007760;28;21072;-82
2024/03/08 03:56:26;;;;;;;27.07;14.23;;;2.10;99.90;;;;;;5015661;28;20960;-82
2024/03/08 03:58:53;;;;;;;25.70;15.03;;;2.20;99.90;;;;;;5005529;28;20526;-82
2024/03/08 04:01:20;;;;;;;28.43;16.70;;;2.10;99.90;;;;;;5004742;28;20473;-81
2024/03/08 04:03:47;;;;;;;29.17;15.50;;;2.10;99.90;;;;;;4998074;28;20455;-83
2024/03/08 04:06:15;;;;;;;25.80;15.03;;;2.10;99.90;;;;;;5009802;28;20466;-82
2024/03/08 04:08:42;;;;;;;29.03;14.17;;;2.10;99.90;;;;;;5006892;28;20450;-80
2024/03/08 04:11:09;;;;;;;27.57;17.03;;;2.10;99.90;;;;;;5010240;28;20440;-81
2024/03/08 04:13:36;;;;;;;26.43;14.43;;;2.10;99.90;;;;;;5007136;28;20891;-83
2024/03/08 04:16:07;;;;;;;28.27;16.50;;;2.00;99.90;;;;;;5004982;28;20485;-82
2024/03/08 04:18:35;;;;;;;28.40;15.93;;;2.00;99.90;;;;;;4997060;28;20810;-83
2024/03/08 04:21:02;;;;;;;29.37;15.37;;;2.00;99.90;;;;;;5004869;28;20947;-83
2024/03/08 04:23:30;;;;;;;28.60;15.77;;;2.00;99.90;;;;;;5012084;28;20423;-82
2024/03/08 04:25:57;;;;;;;35.03;17.67;;;1.90;99.90;;;;;;5004814;28;20490;-82
2024/03/08 04:28:25;;;;;;;27.20;16.50;;;2.00;99.90;;;;;;4996370;28;20494;-81
2024/03/08 04:30:52;;;;;;;29.43;16.43;;;2.00;99.90;;;;;;5007382;28;20462;-84
2024/03/08 04:33:18;;;;;;;26.77;14.90;;;2.00;99.90;;;;;;5003508;28;20485;-82
2024/03/08 04:35:46;;;;;;;31.33;15.23;;;1.90;99.90;;;;;;4997802;28;20561;-82
2024/03/08 04:38:13;;;;;;;29.23;15.40;;;1.90;99.90;;;;;;5007968;28;20454;-82
2024/03/08 04:40:41;;;;;;;28.93;16.80;;;1.90;99.90;;;;;;5008223;28;20439;-83
2024/03/08 04:43:10;;;;;;;28.43;15.07;;;1.80;99.90;;;;;;5007076;28;20450;-83
2024/03/08 04:45:37;;;;;;;25.97;14.83;;;1.80;99.90;;;;;;5015741;28;21040;-82
2024/03/08 04:48:04;;;;;;;28.00;15.90;;;1.80;99.90;;;;;;5015225;28;20973;-81
2024/03/08 04:50:31;;;;;;;30.00;16.30;;;1.80;99.90;;;;;;5014994;28;20464;-81
2024/03/08 04:52:58;;;;;;;29.50;16.00;;;1.80;99.90;;;;;;5010121;28;20464;-81
2024/03/08 04:55:26;;;;;;;27.37;15.93;;;1.70;99.90;;;;;;4999546;28;20449;-82
2024/03/08 04:57:54;;;;;;;32.20;17.97;;;1.70;99.90;;;;;;5006154;28;20469;-82
2024/03/08 05:00:21;;;;;;;32.53;15.80;;;1.70;99.90;;;;;;5002999;28;20555;-83
2024/03/08 05:02:48;;;;;;;33.73;16.97;;;1.70;99.90;;;;;;5010762;28;20549;-84
2024/03/08 05:05:15;;;;;;;29.40;15.53;;;1.70;99.90;;;;;;5003262;28;20470;-82
2024/03/08 05:07:43;;;;;;;30.43;16.10;;;1.60;99.90;;;;;;5006949;28;20512;-82
2024/03/08 05:10:10;;;;;;;29.10;17.10;;;1.60;99.90;;;;;;5011036;28;20906;-83
2024/03/08 05:12:38;;;;;;;32.87;15.80;;;1.60;99.90;;;;;;5008811;28;20457;-81
2024/03/08 05:15:08;;;;;;;31.10;17.37;;;1.60;99.90;;;;;;5006978;28;20467;-81
2024/03/08 05:17:36;;;;;;;31.87;17.43;;;1.60;99.90;;;;;;5002564;28;20489;-82
2024/03/08 05:20:07;;;;;;;31.00;17.50;;;1.60;99.90;;;;;;5003850;28;20512;-82
2024/03/08 05:22:35;;;;;;;52.93;17.03;;;1.60;99.90;;;;;;5005411;28;20473;-82
2024/03/08 05:25:02;;;;;;;31.80;16.57;;;1.60;99.90;;;;;;5010192;28;20548;-82
2024/03/08 05:27:29;;;;;;;28.17;17.07;;;1.50;99.90;;;;;;5010379;28;20507;-83
2024/03/08 05:29:56;;;;;;;29.97;17.50;;;1.50;99.90;;;;;;5014146;28;20432;-82
2024/03/08 05:32:24;;;;;;;33.70;16.10;;;1.40;99.90;;;;;;5016525;28;20428;-81
2024/03/08 05:34:52;;;;;;;31.77;17.30;;;1.50;99.90;;;;;;5007468;28;20468;-80
2024/03/08 05:37:20;;;;;;;28.60;16.10;;;1.50;99.90;;;;;;5009285;28;20512;-81
2024/03/08 05:39:46;;;;;;;31.33;17.20;;;1.50;99.90;;;;;;5012520;28;20428;-82
2024/03/08 05:42:13;;;;;;;38.53;17.10;;;1.50;99.90;;;;;;5009625;28;20433;-80
2024/03/08 05:44:40;;;;;;;33.00;15.60;;;1.50;99.90;;;;;;5009098;28;20481;-81
2024/03/08 05:47:07;;;;;;;31.30;16.50;;;1.50;99.90;;;;;;5005092;28;20511;-79
2024/03/08 05:49:37;;;;;;;35.80;16.73;;;1.40;99.90;;;;;;4999861;28;20523;-81
2024/03/08 05:52:04;;;;;;;30.10;16.67;;;1.40;99.90;;;;;;5003612;28;20421;-81
2024/03/08 05:54:33;;;;;;;27.57;15.33;;;1.40;99.90;;;;;;5002620;28;20488;-81
2024/03/08 05:56:59;;;;;;;28.80;16.67;;;1.40;99.90;;;;;;5011130;28;20465;-81
2024/03/08 05:59:26;;;;;;;31.63;16.70;;;1.40;99.90;;;;;;5017884;28;20519;-80
2024/03/08 06:01:53;;;;;;;29.53;16.60;;;1.40;99.90;;;;;;5018288;28;20481;-80
2024/03/08 06:04:21;;;;;;;34.50;18.93;;;1.40;99.90;;;;;;5019651;28;20452;-81
2024/03/08 06:06:51;;;;;;;35.30;19.10;;;1.40;99.90;;;;;;5017638;28;20468;-83
2024/03/08 06:09:22;;;;;;;34.83;16.03;;;1.40;99.90;;;;;;5009417;28;20473;-82
2024/03/08 06:11:49;;;;;;;29.53;16.33;;;1.40;99.90;;;;;;5006857;28;20473;-83
2024/03/08 06:14:18;;;;;;;33.40;18.37;;;1.40;99.90;;;;;;5007409;28;21076;-83
2024/03/08 06:16:45;;;;;;;39.57;18.67;;;1.40;99.90;;;;;;5007390;28;20425;-82
2024/03/08 06:19:12;;;;;;;33.07;18.80;;;1.40;99.90;;;;;;5007134;28;20530;-82
2024/03/08 06:21:39;;;;;;;34.77;20.03;;;1.40;99.90;;;;;;5011297;28;20527;-83
2024/03/08 06:24:07;;;;;;;34.60;19.23;;;1.40;99.90;;;;;;5006392;28;20506;-83
2024/03/08 06:26:34;;;;;;;31.70;16.93;;;1.40;99.90;;;;;;5009969;28;20530;-83
2024/03/08 06:29:00;;;;;;;30.90;16.97;;;1.40;99.90;;;;;;5006507;28;21017;-83
2024/03/08 06:31:27;;;;;;;37.03;18.53;;;1.40;99.90;;;;;;5009369;28;20540;-82
2024/03/08 06:33:55;;;;;;;28.03;16.90;;;1.40;99.90;;;;;;5007277;28;20858;-83
2024/03/08 06:36:22;;;;;;;37.77;20.13;;;1.50;99.90;;;;;;5010171;28;20569;-81
2024/03/08 06:38:49;;;;;;;30.40;17.80;;;1.40;99.90;;;;;;5013762;28;20460;-82
2024/03/08 06:41:17;;;;;;;33.43;17.00;;;1.50;99.90;;;;;;5006909;28;20453;-81
2024/03/08 06:43:45;;;;;;;36.20;18.40;;;1.50;99.90;;;;;;5014479;28;20450;-83
2024/03/08 06:46:12;;;;;;;34.30;16.60;;;1.50;99.90;;;;;;5006656;28;20471;-83
2024/03/08 06:48:39;;;;;;;33.00;18.90;;;1.60;99.90;;;;;;5009745;28;20892;-82
2024/03/08 06:51:06;;;;;;;37.67;18.60;;;1.60;99.90;;;;;;5006265;28;20439;-82
2024/03/08 06:53:34;;;;;;;36.20;17.70;;;1.70;99.90;;;;;;5011111;28;20488;-82
2024/03/08 06:56:01;;;;;;;31.83;16.80;;;1.70;99.90;;;;;;5013102;28;20468;-84
2024/03/08 06:58:29;;;;;;;33.30;18.00;;;1.80;99.90;;;;;;5012593;28;20500;-83
2024/03/08 07:00:58;;;;;;;28.77;16.40;;;1.80;99.90;;;;;;5014603;28;20476;-82
2024/03/08 07:03:26;;;;;;;32.93;18.27;;;1.90;99.90;;;;;;5010310;28;20449;-82
2024/03/08 07:05:54;;;;;;;30.50;16.90;;;2.00;99.90;;;;;;5010945;28;20455;-82
2024/03/08 07:08:22;;;;;;;30.90;16.97;;;2.10;99.90;;;;;;5007889;28;20457;-81
2024/03/08 07:10:49;;;;;;;32.23;17.60;;;2.20;99.90;;;;;;5009262;28;20522;-80
2024/03/08 07:13:16;;;;;;;30.47;16.83;;;2.10;99.90;;;;;;5011964;28;20875;-82
2024/03/08 07:15:45;;;;;;;43.10;18.80;;;2.20;99.90;;;;;;5011930;28;20488;-82
2024/03/08 07:18:14;;;;;;;33.93;19.07;;;2.20;99.90;;;;;;5009089;28;20449;-83
2024/03/08 07:20:41;;;;;;;28.87;16.10;;;2.30;99.90;;;;;;5012926;28;20437;-82
2024/03/08 07:23:10;;;;;;;29.13;17.20;;;2.40;99.90;;;;;;5007507;28;20458;-80
2024/03/08 07:25:39;;;;;;;29.90;17.70;;;2.50;99.90;;;;;;5008722;28;20513;-82
2024/03/08 07:28:06;;;;;;;31.90;16.57;;;2.50;99.90;;;;;;5014267;28;21066;-81
2024/03/08 07:33:19;;;;;;;35.00;18.50;;;2.70;99.90;;;;;;5008940;28;20483;-81
2024/03/08 07:35:46;;;;;;;28.07;16.03;;;2.70;99.90;;;;;;5011452;28;21045;-81
2024/03/08 07:38:14;;;;;;;29.37;16.37;;;2.80;99.90;;;;;;5012197;28;20517;-81
2024/03/08 07:40:44;;;;;;;36.70;19.10;;;2.90;99.90;;;;;;5010224;28;20425;-81
2024/03/08 07:43:11;;;;;;;29.33;16.80;;;3.00;99.90;;;;;;5009784;28;20461;-80
2024/03/08 07:45:38;;;;;;;31.30;16.37;;;3.10;99.90;;;;;;5005325;28;20479;-81
2024/03/08 07:48:09;;;;;;;29.50;14.17;;;3.20;99.90;;;;;;5008576;28;20816;-81
2024/03/08 07:50:37;;;;;;;28.50;15.30;;;3.20;99.90;;;;;;5005969;28;20483;-82
2024/03/08 07:53:06;;;;;;;31.27;16.13;;;3.30;99.90;;;;;;5009265;28;20523;-82
2024/03/08 07:55:33;;;;;;;27.40;14.47;;;3.40;99.90;;;;;;5009488;28;20505;-82
2024/03/08 07:58:00;;;;;;;35.00;16.80;;;3.50;99.90;;;;;;5012442;28;20444;-82
2024/03/08 08:00:27;;;;;;;28.20;16.80;;;3.60;99.90;;;;;;5009756;28;20450;-82
2024/03/08 08:02:54;;;;;;;29.00;16.10;;;3.70;99.90;;;;;;5010912;28;20459;-82
2024/03/08 08:05:21;;;;;;;32.83;17.50;;;3.70;99.90;;;;;;5009959;28;20478;-82
2024/03/08 08:07:49;;;;;;;29.60;15.00;;;3.90;99.90;;;;;;5006075;28;20536;-82
2024/03/08 08:10:18;;;;;;;31.17;16.20;;;3.90;99.90;;;;;;5009212;28;20534;-82
2024/03/08 08:12:46;;;;;;;26.20;15.90;;;4.00;99.90;;;;;;5012100;28;20528;-82
2024/03/08 08:15:14;;;;;;;28.03;15.33;;;4.20;99.90;;;;;;5012779;28;20888;-83
2024/03/08 08:17:44;;;;;;;29.90;16.27;;;4.10;99.90;;;;;;5006833;28;20486;-80
2024/03/08 08:20:13;;;;;;;29.97;16.27;;;4.40;99.90;;;;;;5004411;28;20540;-81
2024/03/08 08:22:40;;;;;;;27.63;16.50;;;4.60;99.90;;;;;;5007217;28;20457;-82
2024/03/08 08:25:11;;;;;;;30.10;14.90;;;4.90;99.90;;;;;;5009357;28;20477;-81
2024/03/08 08:27:39;;;;;;;29.13;14.97;;;5.10;99.90;;;;;;5005702;28;20465;-82
2024/03/08 08:30:08;;;;;;;28.57;14.43;;;5.30;99.90;;;;;;5006223;28;20456;-81
2024/03/08 08:32:35;;;;;;;28.60;15.03;;;5.50;99.90;;;;;;5005908;28;20456;-81
2024/03/08 08:35:02;;;;;;;32.50;16.37;;;5.60;99.90;;;;;;5005498;28;20501;-81
2024/03/08 08:37:29;;;;;;;28.30;15.87;;;5.70;99.90;;;;;;5011696;28;20987;-80
2024/03/08 08:39:58;;;;;;;27.13;14.67;;;5.70;99.90;;;;;;5000455;28;20516;-81
2024/03/08 08:42:28;;;;;;;30.70;16.10;;;5.70;99.90;;;;;;5002011;28;20473;-81
2024/03/08 08:44:55;;;;;;;29.63;15.40;;;5.90;99.90;;;;;;5005280;28;20467;-80
2024/03/08 08:47:24;;;;;;;25.30;14.83;;;6.10;99.90;;;;;;5009189;28;21051;-81
2024/03/08 08:49:51;;;;;;;31.77;15.70;;;6.30;99.90;;;;;;5009774;28;20464;-82
2024/03/08 08:52:18;;;;;;;26.10;15.20;;;6.30;99.90;;;;;;5002803;28;20489;-81
2024/03/08 08:54:45;;;;;;;27.13;16.47;;;6.30;99.90;;;;;;4997385;28;20919;-82
2024/03/08 08:57:12;;;;;;;28.53;14.93;;;6.40;99.90;;;;;;5006595;28;20902;-82
2024/03/08 08:59:41;;;;;;;31.60;16.23;;;6.70;99.90;;;;;;5006025;28;20455;-82
2024/03/08 09:02:09;;;;;;;28.10;16.67;;;7.00;99.90;;;;;;5002638;28;20469;-82
2024/03/08 09:04:36;;;;;;;30.00;16.33;;;7.30;99.90;;;;;;5006969;28;20461;-82
2024/03/08 09:07:06;;;;;;;24.67;14.67;;;7.40;99.90;;;;;;5006843;28;20454;-82
2024/03/08 09:09:33;;;;;;;24.73;15.50;;;7.50;99.90;;;;;;5003860;28;20452;-82
2024/03/08 09:12:00;;;;;;;26.03;14.80;;;7.80;99.90;;;;;;5008050;28;20518;-82
2024/03/08 09:14:26;;;;;;;25.10;14.00;;;8.40;99.90;;;;;;5009774;28;20465;-83
2024/03/08 09:16:55;;;;;;;26.97;15.00;;;8.90;99.90;;;;;;5001930;28;20461;-83
2024/03/08 09:19:23;;;;;;;27.20;15.67;;;9.60;99.90;;;;;;5004475;28;20459;-82
2024/03/08 09:21:51;;;;;;;27.27;15.43;;;10.60;99.90;;;;;;4997364;28;20458;-81
2024/03/08 09:24:18;;;;;;;28.17;15.30;;;10.60;99.90;;;;;;5003793;28;20487;-83
2024/03/08 09:26:44;;;;;;;26.90;14.60;;;10.50;98.50;;;;;;5007828;28;20548;-83
2024/03/08 09:29:11;;;;;;;28.97;13.63;;;11.10;97.60;;;;;;5016856;28;20931;-82
2024/03/08 09:31:39;;;;;;;26.40;15.10;;;11.50;95.80;;;;;;5003257;28;20463;-82
2024/03/08 09:34:08;;;;;;;26.07;14.67;;;12.40;95.50;;;;;;5017651;28;20487;-82
2024/03/08 09:36:35;;;;;;;25.43;13.93;;;12.90;94.20;;;;;;5001193;28;20554;-82
2024/03/08 09:39:02;;;;;;;23.13;14.23;;;13.70;92.30;;;;;;5001081;28;20448;-83
2024/03/08 09:41:30;;;;;;;27.70;15.50;;;13.30;90.20;;;;;;5001401;28;20985;-82
2024/03/08 09:43:59;;;;;;;28.70;15.47;;;13.30;88.90;;;;;;5017143;28;20460;-82
2024/03/08 09:46:26;;;;;;;32.17;15.23;;;13.10;89.00;;;;;;5017901;28;20475;-82
2024/03/08 09:48:54;;;;;;;28.17;16.73;;;13.20;88.00;;;;;;5020675;28;20459;-80
2024/03/08 09:51:25;;;;;;;25.47;14.20;;;12.80;88.70;;;;;;5020844;28;20882;-83
2024/03/08 09:53:53;;;;;;;24.00;14.20;;;12.70;87.30;;;;;;5021487;28;20541;-83
2024/03/08 09:56:20;;;;;;;27.70;15.30;;;13.10;88.90;;;;;;5020003;28;20526;-81
2024/03/08 09:59:14;;;;;;;25.77;16.27;;;13.00;84.80;;;;;;5019943;28;20554;-82
2024/03/08 10:01:41;;;;;;;25.57;14.60;;;13.00;85.80;;;;;;5002195;28;20488;-82
2024/03/08 10:04:10;;;;;;;27.23;14.80;;;13.10;85.00;;;;;;5010021;28;20487;-81
2024/03/08 10:06:38;;;;;;;24.33;14.47;;;13.20;84.40;;;;;;5001203;28;20498;-83
2024/03/08 10:09:07;;;;;;;25.93;14.77;;;13.60;86.40;;;;;;5002713;28;20487;-83
2024/03/08 10:11:34;;;;;;;26.57;14.67;;;14.00;85.70;;;;;;5001834;28;20491;-82
2024/03/08 10:14:02;;;;;;;23.20;14.93;;;15.00;83.30;;;;;;5000822;28;20490;-83
2024/03/08 10:16:29;;;;;;;23.57;13.33;;;14.90;82.90;;;;;;5000273;28;20506;-83
2024/03/08 10:18:57;;;;;;;22.50;14.67;;;15.30;80.80;;;;;;5000297;28;20454;-83
2024/03/08 10:21:25;;;;;;;26.57;16.90;;;15.70;79.60;;;;;;4999342;28;20456;-83
2024/03/08 10:23:53;;;;;;;24.50;16.03;;;16.10;78.20;;;;;;5001226;28;20458;-82
2024/03/08 10:26:21;;;;;;;25.17;16.60;;;16.40;76.80;;;;;;5018315;28;20464;-83
2024/03/08 10:28:49;;;;;;;25.23;16.57;;;16.70;77.70;;;;;;5012593;28;20979;-83
2024/03/08 10:31:17;;;;;;;25.43;17.70;;;17.20;75.20;;;;;;5013118;28;20848;-81
2024/03/08 10:33:44;;;;;;;24.20;16.47;;;17.50;73.30;;;;;;5000408;28;20464;-81
2024/03/08 10:36:12;;;;;;;26.60;17.30;;;17.90;71.00;;;;;;5005895;28;20494;-80
2024/03/08 10:38:41;;;;;;;26.53;16.53;;;18.30;73.10;;;;;;5002721;28;20853;-79
2024/03/08 10:41:10;;;;;;;26.77;17.77;;;19.50;70.60;;;;;;5011440;28;20907;-80
2024/03/08 10:44:11;;;;;;;25.23;16.83;;;19.60;68.00;;;;;;5006523;28;20925;-80
2024/03/08 10:46:50;;;;;;;19.77;14.40;;;20.30;68.30;;;;;;5011821;28;20452;-80
2024/03/08 10:49:18;;;;;;;23.57;15.30;;;20.80;64.80;;;;;;5000903;28;20554;-79
2024/03/08 10:51:47;;;;;;;24.10;16.97;;;21.40;63.80;;;;;;5005803;28;21024;-79
2024/03/08 10:54:17;;;;;;;25.90;15.90;;;21.20;61.30;;;;;;5011477;28;20485;-80
2024/03/08 10:56:46;;;;;;;23.10;16.90;;;21.50;59.10;;;;;;5008041;28;20482;-80
2024/03/08 10:59:14;;;;;;;24.40;16.97;;;22.00;59.30;;;;;;5008316;28;20460;-80
2024/03/08 11:01:40;;;;;;;27.10;18.60;;;21.40;58.10;;;;;;5012045;28;21107;-81
2024/03/08 11:04:07;;;;;;;23.90;16.30;;;21.30;58.00;;;;;;5001390;28;20562;-80
2024/03/08 11:06:45;;;;;;;23.73;16.40;;;21.80;59.80;;;;;;5008940;28;20455;-80
2024/03/08 11:09:29;;;;;;;21.77;15.63;;;21.80;59.40;;;;;;5010587;28;20495;-81
2024/03/08 11:12:29;;;;;;;26.20;17.53;;;21.80;55.90;;;;;;5004909;28;20476;-79
2024/03/08 11:14:57;;;;;;;25.43;16.50;;;22.10;57.20;;;;;;5006067;28;20614;-80
2024/03/08 11:17:41;;;;;;;25.73;17.00;;;22.30;57.60;;;;;;5003729;28;20546;-79
2024/03/08 11:20:15;;;;;;;23.13;16.33;;;22.40;57.30;;;;;;5005355;28;20553;-79
2024/03/08 11:22:48;;;;;;;22.90;15.40;;;22.60;57.70;;;;;;4997279;28;20462;-79
2024/03/08 11:25:35;;;;;;;26.20;15.90;;;23.10;54.70;;;;;;4997190;28;21017;-80
2024/03/08 11:28:16;;;;;;;23.17;15.90;;;23.00;55.50;;;;;;5005798;28;20458;-80
2024/03/08 11:30:44;;;;;;;22.70;16.00;;;22.60;55.70;;;;;;5006878;28;20455;-78
2024/03/08 11:33:13;;;;;;;23.40;15.80;;;22.10;55.30;;;;;;5014675;28;21258;-80
2024/03/08 11:35:40;;;;;;;23.60;16.43;;;23.40;56.40;;;;;;5017516;28;20493;-79
2024/03/08 11:38:08;;;;;;;22.27;16.37;;;23.60;55.60;;;;;;5011660;28;20457;-78
2024/03/08 11:40:37;;;;;;;22.30;16.83;;;23.70;54.70;;;;;;5003486;28;20885;-81
2024/03/08 11:43:07;;;;;;;22.67;15.67;;;23.80;54.20;;;;;;5006486;28;20967;-81
2024/03/08 11:45:37;;;;;;;23.27;15.93;;;24.60;54.80;;;;;;5014294;28;20466;-81
2024/03/08 11:48:03;;;;;;;21.50;16.17;;;24.40;52.80;;;;;;5011240;28;20998;-81
2024/03/08 11:50:32;;;;;;;22.90;15.90;;;24.50;53.20;;;;;;5016313;28;20522;-80
2024/03/08 11:53:03;;;;;;;22.23;15.37;;;24.50;53.10;;;;;;5016205;28;20548;-81
2024/03/08 11:55:35;;;;;;;21.60;15.60;;;23.90;53.00;;;;;;5007459;28;20482;-81
2024/03/08 11:58:10;;;;;;;24.73;14.63;;;24.60;55.30;;;;;;4997463;28;20943;-82
2024/03/08 12:00:38;;;;;;;19.57;14.30;;;25.00;53.30;;;;;;5007107;28;20457;-81
2024/03/08 12:03:07;;;;;;;22.87;16.03;;;24.50;52.50;;;;;;5012263;28;20449;-81
2024/03/08 12:05:34;;;;;;;21.83;16.10;;;24.50;52.70;;;;;;5016327;28;20465;-82
2024/03/08 12:08:02;;;;;;;21.10;13.43;;;25.30;52.80;;;;;;5005754;28;20537;-81
2024/03/08 12:10:30;;;;;;;21.50;15.40;;;25.50;52.20;;;;;;4997827;28;20454;-82
2024/03/08 12:13:00;;;;;;;19.33;15.60;;;26.00;53.10;;;;;;5008928;28;20479;-82
2024/03/08 12:15:27;;;;;;;19.70;14.13;;;26.40;52.60;;;;;;5006537;28;20485;-82
2024/03/08 12:17:56;;;;;;;19.63;14.50;;;27.20;51.20;;;;;;5008906;28;20524;-82
2024/03/08 12:20:25;;;;;;;20.20;15.60;;;28.30;51.10;;;;;;5010124;28;20473;-81
2024/03/08 12:22:53;;;;;;;19.50;13.33;;;28.20;49.30;;;;;;5015042;28;20462;-81
2024/03/08 12:25:20;;;;;;;20.00;15.70;;;27.20;49.90;;;;;;5011668;28;20501;-82
2024/03/08 12:27:47;;;;;;;22.27;14.70;;;28.00;49.50;;;;;;5009723;28;20481;-82
2024/03/08 12:30:23;;;;;;;20.60;12.93;;;28.20;48.70;;;;;;5003834;28;20480;-81
2024/03/08 12:32:57;;;;;;;19.73;15.77;;;28.90;49.10;;;;;;5010096;28;20438;-82
2024/03/08 12:35:26;;;;;;;20.90;14.33;;;28.70;48.20;;;;;;5009975;28;20465;-81
2024/03/08 12:37:54;;;;;;;15.70;11.13;;;29.10;47.70;;;;;;5006730;28;20530;-82
2024/03/08 12:40:39;;;;;;;;;;;;;;;;;;;;;
2024/03/08 12:43:07;;;;;;;13.60;9.57;;;29.50;45.90;;;;;;5010086;28;20461;-82
2024/03/08 12:45:34;;;;;;;13.93;8.80;;;29.50;43.20;;;;;;5010890;28;20483;-81